Time;durP1;ratioP1;P1;durP2;ratioP2;P2;SDS_P1;SDS_P2;PMS_P1;PMS_P2;Temp;Humidity;BMP_temperature;BMP_pressure;BME280_temperature;BME280_humidity;BME280_pressure;Samples;Min_cycle;Max_cycle;Signal;HPM_P1;HPM_P2
2022/03/01 00:01:35;;;;;;;69.72;30.55;;;;;;;-4.23;62.10;102449.53;1740228;81;26667;-72
2022/03/01 00:04:02;;;;;;;75.55;32.83;;;;;;;-4.20;62.36;102443.94;1759692;81;25783;-73
2022/03/01 00:06:29;;;;;;;91.45;36.20;;;;;;;-4.18;61.93;102445.92;1759887;81;25750;-73
2022/03/01 00:08:56;;;;;;;99.37;41.42;;;;;;;-4.18;62.15;102449.89;1760180;81;25447;-73
2022/03/01 00:11:23;;;;;;;99.20;41.88;;;;;;;-4.17;62.23;102448.06;1759587;81;27372;-71
2022/03/01 00:13:50;;;;;;;114.12;50.30;;;;;;;-4.18;61.52;102449.89;1759959;81;25709;-73
2022/03/01 00:16:17;;;;;;;139.07;63.52;;;;;;;-4.20;61.82;102449.22;1739512;81;25612;-73
2022/03/01 00:18:44;;;;;;;141.60;66.05;;;;;;;-4.18;62.07;102453.03;1759642;81;26392;-73
2022/03/01 00:21:11;;;;;;;122.85;53.38;;;;;;;-4.20;61.85;102449.72;1760028;81;25552;-72
2022/03/01 00:23:38;;;;;;;123.65;49.63;;;;;;;-4.24;61.10;102447.89;1740576;81;27409;-73
2022/03/01 00:26:04;;;;;;;119.17;48.68;;;;;;;-4.29;60.93;102444.05;1759700;81;25733;-73
2022/03/01 00:28:31;;;;;;;105.22;46.13;;;;;;;-4.33;60.98;102443.53;1760021;81;25620;-73
2022/03/01 00:30:58;;;;;;;118.95;48.20;;;;;;;-4.36;60.98;102443.84;1760122;81;25672;-73
2022/03/01 00:33:24;;;;;;;107.10;46.70;;;;;;;-4.39;61.05;102445.47;1759972;81;25434;-75
2022/03/01 00:35:51;;;;;;;115.77;49.42;;;;;;;-4.43;61.63;102439.67;1760070;81;27357;-73
2022/03/01 00:38:17;;;;;;;113.95;48.63;;;;;;;-4.47;61.69;102435.70;1759992;81;25588;-72
2022/03/01 00:40:44;;;;;;;109.75;47.80;;;;;;;-4.52;61.74;102442.77;1759892;81;25739;-73
2022/03/01 00:43:10;;;;;;;112.28;44.58;;;;;;;-4.59;61.76;102442.23;1740783;81;26179;-74
2022/03/01 00:45:37;;;;;;;112.25;45.92;;;;;;;-4.65;61.98;102432.28;1760056;81;25730;-73
2022/03/01 00:48:04;;;;;;;105.43;46.25;;;;;;;-4.70;62.24;102431.42;1761989;80;27937;-73
2022/03/01 00:50:30;;;;;;;104.38;44.70;;;;;;;-4.74;62.46;102435.37;1762388;81;25848;-73
2022/03/01 00:52:57;;;;;;;102.30;44.63;;;;;;;-4.80;62.74;102430.69;1762481;81;25688;-72
2022/03/01 00:55:23;;;;;;;103.72;42.17;;;;;;;-4.83;62.87;102428.39;1762336;81;25634;-73
2022/03/01 00:57:50;;;;;;;100.78;40.28;;;;;;;-4.89;63.06;102425.38;1762452;81;25661;-72
2022/03/01 01:00:17;;;;;;;97.75;37.03;;;;;;;-4.93;63.00;102427.16;1762130;81;27319;-72
2022/03/01 01:02:44;;;;;;;83.70;33.58;;;;;;;-4.98;63.20;102430.75;1762141;81;25434;-71
2022/03/01 01:05:11;;;;;;;94.97;36.50;;;;;;;-5.02;63.34;102434.19;1762467;81;25551;-72
2022/03/01 01:07:38;;;;;;;80.67;33.85;;;;;;;-5.03;63.31;102431.70;1750754;81;25629;-73
2022/03/01 01:10:05;;;;;;;86.53;33.85;;;;;;;-5.06;63.32;102426.21;1744325;82;25672;-74
2022/03/01 01:12:34;;;;;;;88.72;35.52;;;;;;;-5.11;63.52;102426.70;1743579;82;27353;-73
2022/03/01 01:15:00;;;;;;;89.28;34.70;;;;;;;-5.13;63.65;102424.67;1744489;82;25553;-73
2022/03/01 01:17:27;;;;;;;81.70;33.78;;;;;;;-5.16;63.52;102421.05;1744629;82;25605;-73
2022/03/01 01:19:54;;;;;;;78.00;32.00;;;;;;;-5.19;63.55;102421.34;1743419;82;26207;-73
2022/03/01 01:25:08;;;;;;;81.45;34.33;;;;;;;-5.28;63.39;102420.45;1744838;82;27984;-73
2022/03/01 01:27:35;;;;;;;91.97;37.63;;;;;;;-5.34;63.54;102418.41;1744750;82;25373;-72
2022/03/01 01:30:03;;;;;;;104.58;40.60;;;;;;;-5.41;63.58;102412.08;1744840;82;25424;-72
2022/03/01 01:32:29;;;;;;;107.00;44.85;;;;;;;-5.42;63.71;102421.46;1691563;82;25617;-72
2022/03/01 01:34:56;;;;;;;118.47;51.77;;;;;;;-5.48;64.05;102420.27;1745809;82;25146;-71
2022/03/01 01:37:22;;;;;;;123.53;49.90;;;;;;;-5.54;64.21;102420.36;1746147;82;27301;-71
2022/03/01 01:39:49;;;;;;;120.95;48.17;;;;;;;-5.57;64.24;102421.97;1745765;82;25464;-71
2022/03/01 01:42:15;;;;;;;127.40;49.80;;;;;;;-5.59;64.30;102425.25;1745881;82;25588;-71
2022/03/01 01:44:44;;;;;;;112.57;44.93;;;;;;;-5.63;64.55;102425.22;1745345;81;25799;-71
2022/03/01 01:47:10;;;;;;;107.63;42.13;;;;;;;-5.67;64.70;102418.56;1744762;82;25563;-71
2022/03/01 01:49:37;;;;;;;104.75;42.78;;;;;;;-5.69;64.84;102428.44;1744787;82;27912;-71
2022/03/01 01:52:05;;;;;;;100.62;41.70;;;;;;;-5.73;64.83;102425.77;1744695;82;25533;-72
2022/03/01 01:54:31;;;;;;;98.67;40.70;;;;;;;-5.78;64.87;102423.57;1734171;82;25389;-72
2022/03/01 01:57:01;;;;;;;107.47;42.10;;;;;;;-5.80;64.90;102418.95;1744760;82;25751;-72
2022/03/01 01:59:28;;;;;;;104.90;39.65;;;;;;;-5.83;64.98;102423.19;1744814;82;25520;-72
2022/03/01 02:01:54;;;;;;;103.22;42.00;;;;;;;-5.86;64.86;102419.02;1744772;82;27367;-72
2022/03/01 02:04:20;;;;;;;99.32;40.10;;;;;;;-5.89;64.90;102420.66;1744703;82;25520;-72
2022/03/01 02:06:54;;;;;;;115.52;43.60;;;;;;;-5.91;64.90;102421.27;1744799;82;25432;-72
2022/03/01 02:09:21;;;;;;;105.78;42.85;;;;;;;-5.92;64.99;102412.23;1744720;82;25802;-72
2022/03/01 02:11:49;;;;;;;99.85;42.48;;;;;;;-5.93;65.20;102411.38;1744815;81;25389;-72
2022/03/01 02:14:15;;;;;;;110.28;44.27;;;;;;;-5.96;65.25;102407.74;1744768;81;27323;-72
2022/03/01 02:16:42;;;;;;;120.50;50.17;;;;;;;-5.99;65.22;102407.21;1744684;82;25367;-72
2022/03/01 02:19:14;;;;;;;114.57;48.25;;;;;;;-6.01;65.05;102412.16;1744785;82;25538;-72
2022/03/01 02:21:50;;;;;;;121.20;46.95;;;;;;;-6.05;65.04;102412.09;1744763;82;25736;-72
2022/03/01 02:24:20;;;;;;;109.63;43.45;;;;;;;-6.08;64.96;102407.61;1744817;82;25384;-72
2022/03/01 02:26:46;;;;;;;115.72;44.08;;;;;;;-6.12;65.17;102407.08;1744823;82;27356;-72
2022/03/01 02:29:13;;;;;;;114.32;47.03;;;;;;;-6.15;65.32;102405.23;1744718;81;25638;-72
2022/03/01 02:31:40;;;;;;;109.83;40.80;;;;;;;-6.17;65.06;102402.73;1744783;82;25596;-72
2022/03/01 02:34:07;;;;;;;99.85;40.90;;;;;;;-6.18;65.29;102398.43;1729275;82;25740;-72
2022/03/01 02:36:33;;;;;;;94.45;40.50;;;;;;;-6.19;65.57;102395.47;1729317;83;25420;-72
2022/03/01 02:39:00;;;;;;;98.50;38.83;;;;;;;-6.22;65.50;102395.75;1729312;83;27329;-72
2022/03/01 02:41:26;;;;;;;100.78;39.88;;;;;;;-6.26;65.57;102393.09;1729217;83;25337;-70
2022/03/01 02:43:53;;;;;;;108.30;44.18;;;;;;;-6.29;65.59;102391.56;1705001;83;25564;-70
2022/03/01 02:46:20;;;;;;;103.62;40.85;;;;;;;-6.33;65.52;102394.16;1729298;83;26195;-71
2022/03/01 02:48:46;;;;;;;111.42;46.70;;;;;;;-6.38;65.54;102389.81;1729208;83;25645;-71
2022/03/01 02:51:12;;;;;;;98.05;40.33;;;;;;;-6.41;65.65;102388.28;1729304;83;28152;-73
2022/03/01 02:53:39;;;;;;;109.45;42.23;;;;;;;-6.45;65.72;102384.29;1729228;83;25519;-73
2022/03/01 02:56:07;;;;;;;100.62;38.15;;;;;;;-6.50;65.70;102385.21;1729295;83;25642;-72
2022/03/01 02:58:33;;;;;;;101.18;41.65;;;;;;;-6.53;65.70;102385.99;1729262;83;25637;-72
2022/03/01 03:00:59;;;;;;;105.65;41.73;;;;;;;-6.55;65.97;102383.50;1712909;83;25521;-72
2022/03/01 03:03:26;;;;;;;112.60;45.15;;;;;;;-6.58;65.95;102380.66;1729370;83;27330;-72
2022/03/01 03:05:53;;;;;;;96.87;41.08;;;;;;;-6.56;65.97;102383.14;1741592;82;25553;-72
2022/03/01 03:08:19;;;;;;;109.75;41.15;;;;;;;-6.60;65.93;102373.89;1744810;82;25180;-72
2022/03/01 03:10:46;;;;;;;105.22;41.63;;;;;;;-6.65;65.96;102365.09;1734285;82;25789;-71
2022/03/01 03:13:13;;;;;;;99.10;39.53;;;;;;;-6.65;66.09;102368.22;1744841;81;25624;-71
2022/03/01 03:15:39;;;;;;;103.53;39.58;;;;;;;-6.67;66.14;102364.91;1744738;82;28276;-71
2022/03/01 03:18:06;;;;;;;99.17;40.80;;;;;;;-6.71;66.30;102361.72;1744638;82;25675;-71
2022/03/01 03:20:33;;;;;;;94.35;38.92;;;;;;;-6.69;66.34;102366.84;1744733;82;25377;-71
2022/03/01 03:23:00;;;;;;;106.55;41.60;;;;;;;-6.71;66.18;102361.72;1744674;82;25648;-71
2022/03/01 03:25:26;;;;;;;98.15;38.67;;;;;;;-6.74;66.28;102359.39;1744753;82;25608;-71
2022/03/01 03:27:53;;;;;;;102.70;41.73;;;;;;;-6.76;66.29;102362.16;1744719;82;27319;-71
2022/03/01 03:30:19;;;;;;;97.55;38.15;;;;;;;-6.79;66.24;102362.45;1744573;82;25669;-71
2022/03/01 03:32:46;;;;;;;108.85;46.23;;;;;;;-6.81;66.28;102353.88;1744711;82;25422;-71
2022/03/01 03:35:13;;;;;;;103.50;44.38;;;;;;;-6.82;66.29;102359.27;1744680;82;25876;-71
2022/03/01 03:37:39;;;;;;;107.12;42.30;;;;;;;-6.86;66.43;102366.63;1744743;82;25570;-71
2022/03/01 03:40:07;;;;;;;100.55;40.70;;;;;;;-6.89;66.62;102362.14;1744704;82;27879;-70
2022/03/01 03:42:34;;;;;;;109.50;44.55;;;;;;;-6.92;66.66;102365.87;1743824;81;25576;-71
2022/03/01 03:45:01;;;;;;;102.67;42.40;;;;;;;-6.94;66.82;102362.56;1744738;81;25535;-71
2022/03/01 03:47:27;;;;;;;105.65;39.73;;;;;;;-6.97;66.79;102359.71;1744526;82;25655;-70
2022/03/01 03:49:54;;;;;;;91.42;39.20;;;;;;;-7.01;66.80;102351.77;1734096;82;25457;-71
2022/03/01 03:52:21;;;;;;;113.17;42.23;;;;;;;-7.02;66.85;102345.33;1744684;82;27883;-71
2022/03/01 03:54:48;;;;;;;102.15;39.60;;;;;;;-7.03;66.87;102345.83;1734021;82;25393;-70
2022/03/01 03:57:15;;;;;;;103.27;40.67;;;;;;;-7.03;66.88;102355.50;1744725;82;25527;-71
2022/03/01 03:59:42;;;;;;;99.85;37.85;;;;;;;-7.04;66.83;102353.36;1744694;82;25619;-71
2022/03/01 04:02:08;;;;;;;112.22;38.80;;;;;;;-7.06;66.83;102351.86;1734039;82;25627;-71
2022/03/01 04:04:36;;;;;;;90.28;37.17;;;;;;;-7.10;66.83;102355.23;1744840;82;27312;-71
2022/03/01 04:07:04;;;;;;;100.87;37.83;;;;;;;-7.11;66.82;102347.02;1744789;82;25453;-71
2022/03/01 04:09:31;;;;;;;109.65;41.55;;;;;;;-7.11;66.89;102352.77;1744834;82;25438;-71
2022/03/01 04:11:58;;;;;;;100.58;39.20;;;;;;;-7.12;66.89;102344.03;1744844;82;26302;-71
2022/03/01 04:14:25;;;;;;;96.70;37.63;;;;;;;-7.15;67.02;102342.53;1744901;82;25364;-71
2022/03/01 04:16:51;;;;;;;91.42;37.73;;;;;;;-7.18;67.07;102347.25;1744914;81;27304;-71
2022/03/01 04:19:18;;;;;;;108.92;43.65;;;;;;;-7.21;67.16;102345.71;1744782;81;25687;-71
2022/03/01 04:21:45;;;;;;;101.67;39.27;;;;;;;-7.20;67.24;102355.73;1744847;82;25570;-71
2022/03/01 04:24:12;;;;;;;100.97;37.90;;;;;;;-7.23;67.30;102343.71;1744808;82;25618;-71
2022/03/01 04:26:38;;;;;;;94.67;38.30;;;;;;;-7.24;67.38;102345.17;1744898;82;25453;-71
2022/03/01 04:29:05;;;;;;;101.45;38.53;;;;;;;-7.26;67.40;102349.25;1744827;82;27390;-71
2022/03/01 04:31:31;;;;;;;97.72;38.53;;;;;;;-7.29;67.34;102342.95;1744743;82;25525;-71
2022/03/01 04:33:58;;;;;;;94.62;35.75;;;;;;;-7.29;67.42;102340.31;1734180;82;25453;-71
2022/03/01 04:36:24;;;;;;;101.00;39.05;;;;;;;-7.30;67.16;102335.20;1744843;81;25803;-71
2022/03/01 04:38:51;;;;;;;103.27;40.40;;;;;;;-7.32;67.29;102337.50;1744859;82;25377;-71
2022/03/01 04:41:17;;;;;;;98.78;37.88;;;;;;;-7.34;67.33;102335.97;1744852;81;27029;-71
2022/03/01 04:43:45;;;;;;;103.38;37.48;;;;;;;-7.37;67.56;102333.61;1744764;82;25371;-71
2022/03/01 04:46:11;;;;;;;101.85;35.78;;;;;;;-7.37;67.58;102333.61;1744858;82;25489;-71
2022/03/01 04:48:38;;;;;;;99.10;40.43;;;;;;;-7.40;67.45;102331.29;1743266;81;25791;-71
2022/03/01 04:51:05;;;;;;;94.15;36.68;;;;;;;-7.40;67.40;102327.34;1731911;82;25606;-71
2022/03/01 04:53:32;;;;;;;95.80;38.90;;;;;;;-7.40;67.36;102324.72;1742448;81;27273;-71
2022/03/01 04:55:59;;;;;;;97.27;41.88;;;;;;;-7.42;67.36;102318.28;1742384;81;25680;-71
2022/03/01 04:58:25;;;;;;;106.40;40.38;;;;;;;-7.42;67.39;102325.31;1742447;81;25458;-72
2022/03/01 05:00:54;;;;;;;104.78;40.70;;;;;;;-7.46;67.28;102330.03;1742403;82;25620;-70
2022/03/01 05:03:21;;;;;;;115.40;42.48;;;;;;;-7.48;67.43;102325.40;1742583;81;25520;-70
2022/03/01 05:05:47;;;;;;;91.55;33.35;;;;;;;-7.48;67.72;102328.52;1742431;81;27504;-71
2022/03/01 05:08:14;;;;;;;86.30;35.55;;;;;;;-7.51;67.65;102317.33;1742359;82;25539;-70
2022/03/01 05:10:41;;;;;;;86.60;34.10;;;;;;;-7.51;67.75;102320.41;1742404;82;25450;-70
2022/03/01 05:13:08;;;;;;;95.90;36.03;;;;;;;-7.52;67.83;102323.54;1742392;82;26237;-71
2022/03/01 05:15:34;;;;;;;101.78;38.05;;;;;;;-7.55;67.75;102315.92;1742477;81;25381;-71
2022/03/01 05:18:01;;;;;;;96.35;37.58;;;;;;;-7.55;67.85;102326.44;1742463;82;27294;-71
2022/03/01 05:20:28;;;;;;;96.37;35.43;;;;;;;-7.55;68.14;102322.99;1742346;81;25546;-71
2022/03/01 05:22:55;;;;;;;87.12;33.02;;;;;;;-7.55;68.10;102333.02;1742443;82;25513;-71
2022/03/01 05:25:23;;;;;;;94.25;34.60;;;;;;;-7.54;67.98;102320.23;1742388;82;25610;-71
2022/03/01 05:27:52;;;;;;;100.55;33.05;;;;;;;-7.53;67.97;102323.18;1742423;81;25632;-71
2022/03/01 05:30:21;;;;;;;95.95;33.55;;;;;;;-7.52;67.85;102324.85;1742532;81;27314;-71
2022/03/01 05:32:52;;;;;;;50.97;22.00;;;;;;;-7.52;67.83;102323.54;1742651;81;25609;-71
2022/03/01 05:35:22;;;;;;;93.10;32.10;;;;;;;-7.52;67.92;102316.97;1742551;81;25421;-71
2022/03/01 05:37:52;;;;;;;79.17;31.37;;;;;;;-7.51;67.95;102317.78;1742402;82;25637;-72
2022/03/01 05:40:21;;;;;;;95.85;34.15;;;;;;;-7.51;67.61;102313.38;1742700;81;25556;-71
2022/03/01 05:42:47;;;;;;;;;;;;;;;-7.47;67.72;102317.87;1745002;82;27333;-71
2022/03/01 05:45:14;;;;;;;76.97;27.42;;;;;;;-7.45;68.03;102309.35;1742351;82;25623;-72
2022/03/01 05:47:43;;;;;;;78.45;30.30;;;;;;;-7.43;68.18;102316.61;1742515;81;25749;-72
2022/03/01 05:50:14;;;;;;;80.28;30.00;;;;;;;-7.41;68.22;102315.16;1744743;82;25735;-71
2022/03/01 05:52:42;;;;;;;85.00;32.95;;;;;;;-7.37;68.42;102323.95;1744851;82;25440;-71
2022/03/01 05:55:10;;;;;;;92.75;33.23;;;;;;;-7.33;68.46;102316.11;1744783;82;27914;-71
2022/03/01 05:57:40;;;;;;;95.57;32.55;;;;;;;-7.27;68.36;102316.52;1744777;82;25567;-71
2022/03/01 06:00:12;;;;;;;91.72;33.40;;;;;;;-7.22;68.30;102318.23;1744877;82;25461;-71
2022/03/01 06:02:40;;;;;;;91.28;34.27;;;;;;;-7.17;68.30;102323.90;1744770;82;25612;-71
2022/03/01 06:05:07;;;;;;;84.92;33.48;;;;;;;-7.13;68.50;102317.40;1744911;82;25547;-71
2022/03/01 06:07:34;;;;;;;84.67;33.90;;;;;;;-7.08;68.52;102311.69;1744863;82;27911;-71
2022/03/01 06:10:00;;;;;;;77.87;28.38;;;;;;;-7.00;68.53;102315.30;1744783;82;25583;-71
2022/03/01 06:12:27;;;;;;;90.57;30.02;;;;;;;-6.92;68.57;102319.82;1744870;82;25368;-71
2022/03/01 06:14:54;;;;;;;78.28;29.15;;;;;;;-6.84;68.87;102316.48;1744826;82;25628;-71
2022/03/01 06:17:20;;;;;;;77.42;26.65;;;;;;;-6.74;69.15;102321.69;1744894;82;25609;-70
2022/03/01 06:19:47;;;;;;;72.12;29.10;;;;;;;-6.64;69.38;102328.59;1744892;81;27343;-70
2022/03/01 06:22:13;;;;;;;78.47;28.65;;;;;;;-6.50;69.91;102323.80;1744797;82;25515;-71
2022/03/01 06:24:42;;;;;;;77.10;28.52;;;;;;;-6.30;70.18;102324.06;1744720;82;25550;-71
2022/03/01 06:27:10;;;;;;;55.88;21.30;;;;;;;-6.14;70.07;102316.00;1744846;82;26159;-71
2022/03/01 06:29:37;;;;;;;82.40;31.93;;;;;;;-5.97;69.89;102323.09;1744785;82;25418;-71
2022/03/01 06:32:06;;;;;;;80.10;29.63;;;;;;;-5.85;69.87;102320.53;1744750;82;27298;-71
2022/03/01 06:34:34;;;;;;;82.27;29.80;;;;;;;-5.71;69.67;102319.17;1744835;81;33151;-71
2022/03/01 06:37:00;;;;;;;76.92;29.42;;;;;;;-5.56;69.98;102318.15;1744788;82;25561;-71
2022/03/01 06:39:27;;;;;;;87.35;31.00;;;;;;;-5.39;70.22;102313.83;1744743;82;25679;-71
2022/03/01 06:41:54;;;;;;;98.65;37.30;;;;;;;-5.17;70.79;102311.69;1759413;81;25377;-71
2022/03/01 06:44:20;;;;;;;84.52;30.57;;;;;;;-4.85;71.71;102313.69;1744792;82;27297;-71
2022/03/01 06:46:47;;;;;;;93.30;33.67;;;;;;;-4.47;72.75;102310.22;1744694;82;25382;-71
2022/03/01 06:49:13;;;;;;;101.05;42.05;;;;;;;-4.05;72.28;102309.83;1747996;81;25622;-71
2022/03/01 06:51:40;;;;;;;104.27;44.00;;;;;;;-3.58;72.58;102318.48;1750419;82;26180;-72
2022/03/01 06:54:06;;;;;;;99.77;41.08;;;;;;;-3.11;72.82;102315.14;1750565;81;25606;-72
2022/03/01 06:56:33;;;;;;;97.30;41.25;;;;;;;-2.64;72.50;102317.48;1750580;81;27149;-72
2022/03/01 06:58:59;;;;;;;96.65;42.50;;;;;;;-2.15;72.64;102311.13;1750523;82;25658;-72
2022/03/01 07:01:26;;;;;;;98.35;44.15;;;;;;;-1.64;72.24;102315.94;1750587;81;25492;-72
2022/03/01 07:03:55;;;;;;;107.65;45.28;;;;;;;-1.15;70.92;102308.87;1750579;82;25612;-72
2022/03/01 07:06:22;;;;;;;108.90;44.48;;;;;;;-0.67;70.52;102308.52;1750757;82;25511;-72
2022/03/01 07:08:49;;;;;;;124.65;47.60;;;;;;;-0.20;69.64;102303.27;1750873;81;27425;-72
2022/03/01 07:11:16;;;;;;;103.92;40.23;;;;;;;0.28;68.68;102309.38;1750819;81;25619;-72
2022/03/01 07:13:43;;;;;;;104.83;46.40;;;;;;;0.73;67.83;102308.13;1731264;82;25664;-72
2022/03/01 07:16:09;;;;;;;104.15;47.25;;;;;;;1.21;67.10;102307.89;1750624;82;25667;-73
2022/03/01 07:18:36;;;;;;;97.75;45.20;;;;;;;1.66;65.96;102309.65;1749636;81;25728;-73
2022/03/01 07:21:06;;;;;;;97.02;42.48;;;;;;;2.11;64.87;102307.31;1750219;82;27293;-74
2022/03/01 07:23:32;;;;;;;;;;;;;;;2.53;64.26;102298.59;1753189;82;25610;-74
2022/03/01 07:26:00;;;;;;;63.48;30.77;;;;;;;2.98;62.73;102303.30;1750824;82;25362;-74
2022/03/01 07:28:27;;;;;;;70.62;32.50;;;;;;;3.33;61.50;102307.00;1750758;81;25723;-74
2022/03/01 07:30:55;;;;;;;63.40;30.37;;;;;;;3.68;60.46;102304.81;1750760;81;25395;-75
2022/03/01 07:33:21;;;;;;;61.20;30.25;;;;;;;4.05;59.59;102305.52;1750726;81;27308;-75
2022/03/01 07:35:49;;;;;;;62.70;29.63;;;;;;;4.42;58.61;102297.65;1750694;82;25626;-74
2022/03/01 07:38:16;;;;;;;63.17;29.23;;;;;;;4.80;57.57;102304.73;1750787;82;25403;-75
2022/03/01 07:40:43;;;;;;;66.62;31.20;;;;;;;5.15;56.58;102299.64;1749899;82;25666;-75
2022/03/01 07:43:09;;;;;;;65.87;31.35;;;;;;;5.56;55.87;102308.86;1748931;82;25382;-76
2022/03/01 07:45:37;;;;;;;68.72;31.40;;;;;;;5.95;54.55;102308.03;1749094;82;27398;-75
2022/03/01 07:48:05;;;;;;;65.97;33.63;;;;;;;6.20;53.31;102308.95;1748923;82;25532;-76
2022/03/01 07:50:32;;;;;;;59.93;30.65;;;;;;;6.70;52.55;102312.59;1740971;81;25428;-76
2022/03/01 07:52:58;;;;;;;58.50;29.72;;;;;;;7.58;51.72;102303.19;1691749;82;25557;-76
2022/03/01 07:55:25;;;;;;;57.85;29.12;;;;;;;8.45;50.38;102300.70;1740889;82;25592;-75
2022/03/01 07:57:52;;;;;;;52.17;26.95;;;;;;;9.24;49.02;102298.86;1730095;82;27222;-76
2022/03/01 08:00:19;;;;;;;51.85;26.70;;;;;;;9.89;47.41;102296.63;1730200;82;26207;-71
2022/03/01 08:02:45;;;;;;;51.40;26.52;;;;;;;10.40;46.34;102304.94;1742719;80;25574;-75
2022/03/01 08:05:13;;;;;;;53.80;27.25;;;;;;;10.31;45.68;102295.10;1747970;80;26413;-74
2022/03/01 08:07:39;;;;;;;50.88;26.00;;;;;;;10.21;45.01;102298.53;1757632;80;25718;-75
2022/03/01 08:10:28;;;;;;;51.30;25.65;;;;;;;10.00;44.23;102289.42;1739771;82;27874;-76
2022/03/01 08:12:56;;;;;;;43.68;23.18;;;;;;;9.88;44.10;102291.48;1586785;88;25797;-75
2022/03/01 08:15:26;;;;;;;48.33;23.67;;;;;;;9.76;43.89;102295.68;1606355;89;25825;-76
2022/03/01 08:17:54;;;;;;;44.58;22.90;;;;;;;9.68;43.26;102287.48;1606479;88;26920;-76
2022/03/01 08:20:21;;;;;;;;;;;;;;;9.74;43.71;102292.42;1608958;89;25782;-76
2022/03/01 08:22:48;;;;;;;43.58;21.77;;;;;;;9.95;42.90;102288.57;1606521;89;27369;-75
2022/03/01 08:25:16;;;;;;;38.98;22.02;;;;;;;10.02;42.61;102287.28;1606305;89;25775;-76
2022/03/01 08:27:43;;;;;;;37.83;20.92;;;;;;;10.22;42.23;102293.95;1606552;89;25770;-76
2022/03/01 08:30:11;;;;;;;36.28;19.40;;;;;;;10.32;41.81;102292.72;1606437;89;25836;-75
2022/03/01 08:32:38;;;;;;;33.30;17.77;;;;;;;10.49;41.65;102290.39;1606567;89;25776;-75
2022/03/01 08:35:05;;;;;;;37.95;19.73;;;;;;;10.68;41.06;102288.92;1606521;89;27532;-75
2022/03/01 08:37:32;;;;;;;37.45;19.42;;;;;;;10.78;40.58;102287.63;1556047;90;26027;-75
2022/03/01 08:39:59;;;;;;;27.70;17.73;;;;;;;10.79;39.80;102299.27;1577542;90;25836;-76
2022/03/01 08:42:25;;;;;;;30.30;16.42;;;;;;;10.81;39.47;102291.69;1578081;90;25690;-75
2022/03/01 08:44:52;;;;;;;29.95;16.87;;;;;;;10.81;38.72;102295.75;1582106;90;25716;-75
2022/03/01 08:47:19;;;;;;;30.70;15.93;;;;;;;10.78;38.86;102294.39;1578089;90;27929;-75
2022/03/01 08:49:45;;;;;;;25.12;14.40;;;;;;;10.89;38.85;102291.75;1603751;86;25598;-75
2022/03/01 08:52:14;;;;;;;29.35;16.30;;;;;;;10.99;38.14;102296.67;1651052;86;25829;-75
2022/03/01 08:54:41;;;;;;;29.63;15.85;;;;;;;11.11;38.02;102284.27;1650353;86;26562;-75
2022/03/01 08:57:08;;;;;;;28.60;15.83;;;;;;;11.16;37.38;102289.71;1650212;86;25711;-75
2022/03/01 08:59:35;;;;;;;29.10;16.10;;;;;;;11.25;37.56;102288.66;1649914;86;27353;-75
2022/03/01 09:02:04;;;;;;;24.67;14.33;;;;;;;11.39;37.59;102276.79;1667925;84;25807;-75
2022/03/01 09:04:30;;;;;;;26.73;15.23;;;;;;;11.61;37.47;102278.49;1668371;84;25786;-75
2022/03/01 09:06:57;;;;;;;23.45;13.90;;;;;;;11.76;36.88;102278.00;1707172;84;25691;-76
2022/03/01 09:09:24;;;;;;;27.85;15.05;;;;;;;11.88;36.57;102286.41;1689106;84;25714;-76
2022/03/01 09:11:50;;;;;;;25.65;14.38;;;;;;;12.15;36.56;102271.27;1709728;83;27335;-76
2022/03/01 09:14:17;;;;;;;29.90;15.50;;;;;;;12.27;36.38;102273.16;1691296;84;25683;-75
2022/03/01 09:16:44;;;;;;;28.62;15.03;;;;;;;12.31;36.12;102268.03;1711790;83;25731;-77
2022/03/01 09:19:11;;;;;;;27.55;14.47;;;;;;;12.25;35.92;102268.56;1691166;84;25731;-76
2022/03/01 09:21:38;;;;;;;28.35;15.75;;;;;;;12.41;35.53;102270.73;1711655;83;25622;-75
2022/03/01 09:24:07;;;;;;;35.70;20.17;;;;;;;12.52;35.47;102266.09;1691284;84;28119;-75
2022/03/01 09:26:35;;;;;;;33.53;17.85;;;;;;;12.47;34.80;102261.48;1711695;83;25750;-75
2022/03/01 09:29:02;;;;;;;33.83;18.10;;;;;;;12.50;34.96;102259.58;1690821;84;25742;-75
2022/03/01 09:31:29;;;;;;;35.10;19.50;;;;;;;12.67;34.82;102256.56;1710654;83;26337;-75
2022/03/01 09:33:55;;;;;;;34.43;17.05;;;;;;;12.67;34.63;102252.50;1691194;84;26423;-76
2022/03/01 09:36:22;;;;;;;32.73;17.82;;;;;;;12.95;34.64;102251.59;1711253;83;27336;-76
2022/03/01 09:38:50;;;;;;;32.58;17.87;;;;;;;13.02;33.90;102258.89;1690892;84;25753;-76
2022/03/01 09:41:16;;;;;;;34.18;17.85;;;;;;;13.13;33.75;102247.98;1691193;83;25888;-75
2022/03/01 09:43:43;;;;;;;30.80;16.42;;;;;;;13.15;33.18;102247.98;1690808;84;25879;-73
2022/03/01 09:46:10;;;;;;;34.13;18.77;;;;;;;13.00;33.50;102252.12;1711409;83;25783;-73
2022/03/01 09:48:37;;;;;;;28.92;14.98;;;;;;;13.09;33.71;102250.45;1690964;84;26864;-72
2022/03/01 09:51:08;;;;;;;29.40;15.95;;;;;;;13.07;33.76;102245.84;1711231;83;25351;-74
2022/03/01 09:53:36;;;;;;;27.37;15.98;;;;;;;12.87;33.97;102236.70;1690921;84;25706;-73
2022/03/01 09:56:05;;;;;;;24.87;13.40;;;;;;;12.87;33.71;102236.70;1711329;83;25628;-73
2022/03/01 09:58:31;;;;;;;19.82;11.97;;;;;;;13.08;33.68;102227.91;1690876;84;25614;-72
2022/03/01 10:00:58;;;;;;;19.00;10.63;;;;;;;13.27;33.25;102228.09;1711200;83;27337;-71
2022/03/01 10:03:25;;;;;;;16.35;10.05;;;;;;;13.25;33.41;102224.04;1690983;84;26352;-73
2022/03/01 10:05:51;;;;;;;16.02;9.23;;;;;;;13.51;32.95;102223.92;1690842;83;25869;-72
2022/03/01 10:08:21;;;;;;;14.73;8.40;;;;;;;13.78;32.77;102218.83;1690713;84;25766;-72
2022/03/01 10:10:53;;;;;;;13.18;8.68;;;;;;;13.91;32.33;102219.27;1711077;82;25722;-73
2022/03/01 10:13:32;;;;;;;17.65;8.35;;;;;;;13.69;32.18;102207.47;1690658;83;27382;-71
2022/03/01 10:16:15;;;;;;;16.77;8.28;;;;;;;13.76;32.33;102203.34;1711426;83;25771;-72
2022/03/01 10:18:52;;;;;;;15.32;8.93;;;;;;;13.95;32.04;102202.66;1711064;83;25774;-73
2022/03/01 10:21:22;;;;;;;16.15;9.08;;;;;;;14.08;31.87;102207.97;1690536;84;25830;-74
2022/03/01 10:23:55;;;;;;;22.60;11.20;;;;;;;14.23;31.69;102209.19;1711270;83;25638;-74
2022/03/01 10:26:28;;;;;;;16.35;9.30;;;;;;;14.38;31.57;102200.06;1690897;84;27332;-74
2022/03/01 10:28:58;;;;;;;16.65;9.03;;;;;;;14.57;31.11;102195.52;1711059;83;25655;-74
2022/03/01 10:31:28;;;;;;;12.25;6.83;;;;;;;14.64;30.88;102188.92;1690793;84;25659;-74
2022/03/01 10:34:10;;;;;;;12.80;8.08;;;;;;;14.65;30.46;102183.19;1711243;83;25748;-74
2022/03/01 10:36:48;;;;;;;13.35;7.28;;;;;;;14.74;30.38;102184.72;1690733;84;25658;-73
2022/03/01 10:39:27;;;;;;;;;;;;;;;14.83;30.15;102178.90;1713853;83;27994;-75
2022/03/01 10:41:55;;;;;;;14.33;8.58;;;;;;;14.97;30.14;102180.35;1690833;84;25725;-74
2022/03/01 10:44:28;;;;;;;16.80;8.90;;;;;;;15.17;29.76;102167.00;1710997;83;25771;-74
2022/03/01 10:47:05;;;;;;;15.03;8.83;;;;;;;15.21;29.74;102165.30;1690734;84;25747;-75
2022/03/01 10:49:35;;;;;;;15.45;8.53;;;;;;;15.26;29.81;102158.41;1710230;83;25744;-75
2022/03/01 10:52:07;;;;;;;12.88;8.15;;;;;;;15.34;29.44;102155.58;1690671;84;27330;-72
2022/03/01 10:54:41;;;;;;;14.85;7.95;;;;;;;15.43;29.09;102149.70;1711207;83;25703;-75
2022/03/01 10:57:12;;;;;;;12.18;7.47;;;;;;;15.61;29.49;102139.89;1690619;83;26317;-76
2022/03/01 10:59:40;;;;;;;14.60;8.18;;;;;;;15.77;28.98;102142.38;1710985;83;25745;-76
2022/03/01 11:02:07;;;;;;;13.48;8.58;;;;;;;15.86;28.88;102138.65;1690909;84;25769;-74
2022/03/01 11:04:34;;;;;;;15.80;9.30;;;;;;;15.83;28.64;102134.35;1711226;83;28438;-74
2022/03/01 11:07:05;;;;;;;13.20;8.50;;;;;;;15.97;28.49;102137.93;1690562;84;25726;-76
2022/03/01 11:09:34;;;;;;;14.65;9.28;;;;;;;15.76;28.66;102128.48;1711243;83;26363;-76
2022/03/01 11:12:03;;;;;;;13.50;7.85;;;;;;;15.61;28.27;102120.80;1690699;84;26433;-77
2022/03/01 11:14:41;;;;;;;13.48;7.20;;;;;;;15.76;28.20;102121.66;1691139;83;25727;-75